Startpagina
METAR-TAF:

METAR-TAF

Vliegvelden :

Sunan International Airport

Pyongyang, Noord-Korea

breedte: 39-02N, lengte: 125-47E, hoogte: 36 m

METAR: ontbreekt

Tijdstip: 20:40 (12:10 UTC)

Verwachting

Dit bericht is 2 uur en het 0 minuten geleden gemaakt, om 10:10 UTC
Verwachting geldig van 21 om 12 UTC tot 22 om 12 UTC
Wind 6 kt uit het noordwesten
Zicht 10 km of meer
geen wolken onder 1500 m en geen cumulonimbus
Wijzigt naar
van 21 om 14 UTC tot 21 om 16 UTC
Zicht: 4000 m
nevel
Tijdelijke
van 21 om 20 UTC tot 21 om 24 UTC
Zicht: 0500 m
mist

TAF: ZKPY 211010Z 2112/2212 31003MPS CAVOK TX24/2206Z TN06/2121Z BECMG 2114/2116 4000 BR TEMPO 2120/2124 0500 FG

Waarnemingen en weersverwachtingen van meer dan 4000 vliegvelden (METAR en TAF).

De beschikbare stations zijn de gele en rode punten op de kaart.

Ga met uw muis naar het station om de naam te zien.

Klik dan om waarnemingen en weersverwachtingen te zien.

kaart wijzigen: klik op de groene knoppen met een zwart kruis om in te zoomen, op de groene knop met een streepje om uit te zoomen of op de groene pijlen voor aangrenzende kaarten.


METAR-TAF: